createdAt,value
2023-04-22T00:02:16.987Z,2.38
2023-04-22T00:04:46.488Z,2.50
2023-04-22T00:07:15.165Z,1.75
2023-04-22T00:09:42.660Z,2.10
2023-04-22T00:12:11.564Z,1.85
2023-04-22T00:14:38.744Z,1.90
2023-04-22T00:17:07.096Z,1.80
2023-04-22T00:19:34.463Z,1.80
2023-04-22T00:24:27.921Z,2.13
2023-04-22T00:26:54.780Z,2.05
2023-04-22T00:29:21.565Z,1.70
2023-04-22T00:31:48.377Z,1.42
2023-04-22T00:34:17.738Z,1.85
2023-04-22T00:36:44.743Z,1.90
2023-04-22T00:39:12.239Z,1.83
2023-04-22T00:41:39.972Z,1.70
2023-04-22T00:44:11.239Z,2.50
2023-04-22T00:46:39.496Z,1.77
2023-04-22T00:49:08.117Z,1.90
2023-04-22T00:51:35.206Z,1.67
2023-04-22T00:54:02.092Z,1.80
2023-04-22T00:56:31.326Z,1.42
2023-04-22T00:58:58.911Z,1.58
2023-04-22T01:01:26.322Z,1.95
2023-04-22T01:03:53.855Z,1.42
2023-04-22T01:06:22.158Z,1.75
2023-04-22T01:08:48.894Z,1.52
2023-04-22T01:11:16.152Z,1.80
2023-04-22T01:13:43.285Z,1.60
2023-04-22T01:16:10.835Z,1.67
2023-04-22T01:18:37.593Z,1.67
2023-04-22T01:21:04.622Z,1.80
2023-04-22T01:23:31.445Z,1.67
2023-04-22T01:25:58.260Z,1.42
2023-04-22T01:28:25.941Z,2.20
2023-04-22T01:30:55.414Z,1.77
2023-04-22T01:33:22.183Z,1.50
2023-04-22T01:35:48.915Z,1.42
2023-04-22T01:38:15.698Z,1.58
2023-04-22T01:40:42.514Z,1.80
2023-04-22T01:43:09.322Z,1.35
2023-04-22T01:45:36.486Z,1.45
2023-04-22T01:48:04.525Z,1.40
2023-04-22T01:50:31.450Z,1.30
2023-04-22T01:52:58.581Z,1.48
2023-04-22T01:55:25.664Z,1.30
2023-04-22T01:57:52.518Z,1.70
2023-04-22T02:00:19.400Z,1.67
2023-04-22T02:02:48.077Z,1.58
2023-04-22T02:05:15.797Z,1.77
2023-04-22T02:07:44.958Z,1.40
2023-04-22T02:10:14.836Z,1.83
2023-04-22T02:12:41.517Z,1.50
2023-04-22T02:15:08.825Z,1.40
2023-04-22T02:17:35.900Z,1.60
2023-04-22T02:20:04.797Z,1.13
2023-04-22T02:22:32.413Z,1.25
2023-04-22T02:24:59.083Z,0.70
2023-04-22T02:27:25.732Z,0.77
2023-04-22T02:29:52.426Z,1.00
2023-04-22T02:32:19.650Z,0.90
2023-04-22T02:34:47.291Z,1.40
2023-04-22T02:37:14.040Z,0.93
2023-04-22T02:39:40.967Z,2.08
2023-04-22T02:42:07.981Z,1.50
2023-04-22T02:44:34.740Z,1.60
2023-04-22T02:47:01.822Z,1.80
2023-04-22T02:49:28.529Z,1.50
2023-04-22T02:51:55.306Z,1.50
2023-04-22T02:54:21.992Z,1.73
2023-04-22T02:56:48.684Z,1.40
2023-04-22T02:59:15.400Z,1.80
2023-04-22T03:01:42.253Z,1.80
2023-04-22T03:04:15.417Z,1.88
2023-04-22T03:06:42.382Z,1.88
2023-04-22T03:09:09.054Z,1.67
2023-04-22T03:11:36.110Z,2.00
2023-04-22T03:14:03.440Z,1.77
2023-04-22T03:16:30.383Z,1.70
2023-04-22T03:18:58.949Z,1.48
2023-04-22T03:25:21.938Z,1.50
2023-04-22T03:27:56.606Z,1.42
2023-04-22T03:30:24.670Z,1.42
2023-04-22T03:32:53.546Z,1.67
2023-04-22T03:35:24.743Z,1.67
2023-04-22T03:37:52.464Z,1.60
2023-04-22T03:40:26.042Z,1.45
2023-04-22T03:42:53.896Z,1.33
2023-04-22T03:45:21.932Z,0.90
2023-04-22T03:47:58.956Z,1.10
2023-04-22T03:50:34.424Z,0.98
2023-04-22T03:55:28.539Z,1.70
2023-04-22T03:57:56.056Z,1.80
2023-04-22T04:00:22.820Z,1.40
2023-04-22T04:03:01.313Z,1.60
2023-04-22T04:05:28.259Z,1.70
2023-04-22T04:07:55.284Z,1.48
2023-04-22T04:10:23.093Z,2.20
2023-04-22T04:12:51.629Z,2.47
2023-04-22T04:15:21.352Z,2.00
2023-04-22T04:17:50.550Z,1.63
2023-04-22T04:20:19.226Z,1.55
2023-04-22T04:22:46.369Z,1.92
2023-04-22T04:25:14.485Z,1.42
2023-04-22T04:27:45.500Z,1.67
2023-04-22T04:30:14.670Z,1.60
2023-04-22T04:32:45.917Z,1.50
2023-04-22T04:35:15.196Z,1.40
2023-04-22T04:37:46.808Z,1.75
2023-04-22T04:40:14.640Z,2.13
2023-04-22T04:42:46.795Z,2.88
2023-04-22T04:45:20.243Z,3.40
2023-04-22T04:47:50.657Z,2.67
2023-04-22T04:50:22.963Z,2.40
2023-04-22T04:52:50.834Z,2.47
2023-04-22T04:55:23.034Z,2.30
2023-04-22T04:57:50.042Z,2.30
2023-04-22T05:00:17.328Z,1.80
2023-04-22T05:02:45.244Z,2.10
2023-04-22T05:05:12.095Z,2.00
2023-04-22T05:07:41.884Z,1.75
2023-04-22T05:12:37.215Z,2.00
2023-04-22T05:15:06.843Z,1.60
2023-04-22T05:20:00.301Z,2.20
2023-04-22T05:22:26.984Z,2.20
2023-04-22T05:24:53.661Z,2.13
2023-04-22T05:27:20.766Z,2.63
2023-04-22T05:29:47.483Z,2.42
2023-04-22T05:32:16.966Z,2.60
2023-04-22T05:34:43.697Z,2.58
2023-04-22T05:37:10.994Z,2.00
2023-04-22T05:39:41.735Z,2.45
2023-04-22T05:42:12.258Z,2.33
2023-04-22T05:44:39.793Z,2.03
2023-04-22T05:47:06.670Z,2.13
2023-04-22T05:49:33.423Z,1.98
2023-04-22T05:52:18.830Z,2.35
2023-04-22T05:55:00.692Z,2.10
2023-04-22T05:57:27.690Z,1.90
2023-04-22T05:59:54.560Z,2.00
2023-04-22T06:02:21.444Z,2.10
2023-04-22T06:04:48.323Z,2.08
2023-04-22T06:07:15.485Z,2.35
2023-04-22T06:09:42.466Z,2.20
2023-04-22T06:12:09.241Z,1.70
2023-04-22T06:14:36.743Z,2.00
2023-04-22T06:17:03.968Z,2.40
2023-04-22T06:19:30.782Z,1.98
2023-04-22T06:21:57.542Z,2.15
2023-04-22T06:24:24.214Z,2.22
2023-04-22T06:26:50.903Z,2.03
2023-04-22T06:29:17.918Z,2.38
2023-04-22T06:31:44.722Z,1.48
2023-04-22T06:34:11.504Z,2.03
2023-04-22T06:36:38.642Z,2.08
2023-04-22T06:39:06.467Z,2.25
2023-04-22T06:41:51.671Z,2.20
2023-04-22T06:44:37.190Z,2.15
2023-04-22T06:47:15.768Z,1.95
2023-04-22T06:49:47.972Z,1.35
2023-04-22T06:52:24.411Z,1.73
2023-04-22T06:54:53.692Z,1.88
2023-04-22T06:57:20.611Z,1.70
2023-04-22T06:59:47.410Z,1.95
2023-04-22T07:02:15.034Z,1.70
2023-04-22T07:04:43.853Z,2.00
2023-04-22T07:07:11.225Z,1.63
2023-04-22T07:09:38.097Z,2.10
2023-04-22T07:12:05.378Z,1.20
2023-04-22T07:14:32.295Z,1.15
2023-04-22T07:16:59.427Z,1.27
2023-04-22T07:19:26.521Z,1.35
2023-04-22T07:21:54.004Z,1.50
2023-04-22T07:24:20.702Z,1.27
2023-04-22T07:26:47.381Z,1.80
2023-04-22T07:29:14.103Z,1.48
2023-04-22T07:31:40.897Z,1.50
2023-04-22T07:34:07.868Z,1.40
2023-04-22T07:36:34.628Z,1.55
2023-04-22T07:39:01.462Z,1.25
2023-04-22T07:41:28.263Z,1.13
2023-04-22T07:43:55.384Z,1.27
2023-04-22T07:46:22.442Z,1.30
2023-04-22T07:48:49.212Z,1.20
2023-04-22T07:51:16.073Z,1.20
2023-04-22T07:53:42.828Z,1.02
2023-04-22T07:56:09.498Z,0.90
2023-04-22T07:58:36.166Z,0.88
2023-04-22T08:01:02.998Z,1.05
2023-04-22T08:03:29.931Z,1.10
2023-04-22T08:05:58.233Z,1.20
2023-04-22T08:08:26.723Z,0.98
2023-04-22T08:10:53.509Z,0.80
2023-04-22T08:13:20.262Z,0.93
2023-04-22T08:15:47.035Z,1.10
2023-04-22T08:18:13.789Z,0.77
2023-04-22T08:20:40.624Z,0.90
2023-04-22T08:23:07.526Z,0.90
2023-04-22T08:25:35.186Z,0.70
2023-04-22T08:28:01.862Z,1.00
2023-04-22T08:30:28.653Z,1.10
2023-04-22T08:32:55.480Z,0.80
2023-04-22T08:35:22.253Z,1.77
2023-04-22T08:37:48.949Z,1.20
2023-04-22T08:40:15.771Z,1.00
2023-04-22T08:42:44.854Z,0.80
2023-04-22T08:45:13.167Z,1.25
2023-04-22T08:47:41.053Z,1.52
2023-04-22T08:50:09.652Z,0.90
2023-04-22T08:52:36.524Z,0.90
2023-04-22T08:55:03.841Z,0.98
2023-04-22T08:57:31.484Z,0.95
2023-04-22T08:59:58.673Z,1.38
2023-04-22T09:04:56.337Z,1.00
2023-04-22T09:07:25.182Z,0.80
2023-04-22T09:09:53.250Z,0.90
2023-04-22T09:12:19.953Z,0.73
2023-04-22T09:14:46.795Z,0.98
2023-04-22T09:17:19.349Z,0.80
2023-04-22T09:19:46.244Z,0.90
2023-04-22T09:22:16.032Z,1.75
2023-04-22T09:24:51.811Z,0.90
2023-04-22T09:27:19.370Z,0.75
2023-04-22T09:29:50.197Z,0.98
2023-04-22T09:32:17.818Z,1.25
2023-04-22T09:34:54.868Z,0.80
2023-04-22T09:37:27.418Z,0.90
2023-04-22T09:40:00.190Z,0.90
2023-04-22T09:42:26.979Z,1.27
2023-04-22T09:44:53.715Z,0.85
2023-04-22T09:47:21.260Z,0.80
2023-04-22T09:49:49.393Z,1.30
2023-04-22T09:52:26.728Z,0.88
2023-04-22T09:54:54.646Z,1.63
2023-04-22T09:57:22.046Z,1.58
2023-04-22T09:59:51.963Z,0.90
2023-04-22T10:02:18.744Z,1.70
2023-04-22T10:04:47.609Z,0.90
2023-04-22T10:07:15.284Z,1.95
2023-04-22T10:09:42.299Z,0.85
2023-04-22T10:12:08.982Z,0.60
2023-04-22T10:14:35.688Z,0.80
2023-04-22T10:17:04.894Z,0.50
2023-04-22T10:19:33.727Z,1.08
2023-04-22T10:22:03.993Z,0.70
2023-04-22T10:24:35.997Z,0.80
2023-04-22T10:27:08.406Z,1.00
2023-04-22T10:29:38.651Z,0.50
2023-04-22T10:32:17.446Z,0.68
2023-04-22T10:34:48.640Z,0.60
2023-04-22T10:37:19.264Z,0.70
2023-04-22T10:40:16.655Z,0.60
2023-04-22T10:42:52.127Z,0.50
2023-04-22T10:45:19.099Z,0.68
2023-04-22T10:47:46.451Z,0.90
2023-04-22T10:50:26.515Z,0.75
2023-04-22T10:52:59.391Z,0.60
2023-04-22T10:55:46.522Z,0.90
2023-04-22T10:58:21.183Z,0.70
2023-04-22T11:00:54.158Z,0.60
2023-04-22T11:03:28.119Z,0.68
2023-04-22T11:06:18.588Z,0.80
2023-04-22T11:08:50.008Z,0.70
2023-04-22T11:11:19.697Z,0.70
2023-04-22T11:13:50.608Z,0.60
2023-04-22T11:16:22.189Z,0.90
2023-04-22T11:18:49.518Z,0.82
2023-04-22T11:21:16.701Z,0.70
2023-04-22T11:26:16.507Z,0.63
2023-04-22T11:28:46.627Z,0.63
2023-04-22T11:31:15.074Z,0.73
2023-04-22T11:33:41.944Z,0.60
2023-04-22T11:36:12.045Z,1.30
2023-04-22T11:38:38.885Z,0.68
2023-04-22T11:41:05.767Z,0.75
2023-04-22T11:43:32.502Z,1.08
2023-04-22T11:45:59.315Z,0.80
2023-04-22T11:48:26.223Z,0.70
2023-04-22T11:51:09.720Z,0.80
2023-04-22T11:53:37.009Z,1.35
2023-04-22T11:56:04.081Z,0.80
2023-04-22T12:00:59.430Z,0.70
2023-04-22T12:03:29.354Z,0.70
2023-04-22T12:05:58.577Z,0.80
2023-04-22T12:08:31.391Z,0.55
2023-04-22T12:11:01.226Z,0.77
2023-04-22T12:13:31.612Z,0.63
2023-04-22T12:16:04.567Z,0.85
2023-04-22T12:18:32.309Z,0.73
2023-04-22T12:21:13.633Z,0.60
2023-04-22T12:24:00.551Z,0.80
2023-04-22T12:26:28.178Z,0.90
2023-04-22T12:28:56.830Z,0.60
2023-04-22T12:31:24.282Z,0.90
2023-04-22T12:33:51.052Z,0.80
2023-04-22T12:36:20.774Z,0.63
2023-04-22T12:38:47.928Z,0.77
2023-04-22T12:43:42.649Z,0.90
2023-04-22T12:46:09.960Z,0.90
2023-04-22T12:48:39.409Z,0.95
2023-04-22T12:51:07.217Z,0.88
2023-04-22T12:53:34.620Z,0.80
2023-04-22T12:56:01.413Z,0.70
2023-04-22T12:58:28.138Z,0.90
2023-04-22T13:00:54.872Z,0.93
2023-04-22T13:03:21.644Z,0.70
2023-04-22T13:05:48.488Z,1.00
2023-04-22T13:08:15.298Z,0.93
2023-04-22T13:10:42.043Z,1.20
2023-04-22T13:15:38.858Z,1.05
2023-04-22T13:18:06.058Z,1.02
2023-04-22T13:20:32.828Z,1.20
2023-04-22T13:22:59.488Z,0.90
2023-04-22T13:25:26.157Z,1.55
2023-04-22T13:27:52.829Z,0.95
2023-04-22T13:30:20.089Z,0.90
2023-04-22T13:32:46.931Z,1.10
2023-04-22T13:35:13.738Z,1.00
2023-04-22T13:37:40.503Z,1.02
2023-04-22T13:40:08.262Z,1.08
2023-04-22T13:42:35.267Z,1.20
2023-04-22T13:47:28.603Z,0.80
2023-04-22T13:49:55.334Z,1.00
2023-04-22T13:52:22.008Z,0.88
2023-04-22T13:54:48.703Z,1.15
2023-04-22T13:57:15.566Z,0.63
2023-04-22T13:59:42.455Z,0.77
2023-04-22T14:02:09.522Z,0.93
2023-04-22T14:04:36.322Z,0.70
2023-04-22T14:07:03.910Z,0.80
2023-04-22T14:09:30.810Z,0.95
2023-04-22T14:11:57.669Z,0.80
2023-04-22T14:14:24.391Z,0.90
2023-04-22T14:16:51.739Z,0.80
2023-04-22T14:19:18.659Z,0.80
2023-04-22T14:21:45.665Z,0.88
2023-04-22T14:24:12.359Z,0.70
2023-04-22T14:26:39.068Z,0.82
2023-04-22T14:29:05.796Z,0.90
2023-04-22T14:31:32.679Z,1.00
2023-04-22T14:33:59.353Z,0.80
2023-04-22T14:36:27.575Z,1.00
2023-04-22T14:38:54.241Z,0.70
2023-04-22T14:41:21.577Z,0.80
2023-04-22T14:43:48.361Z,1.00
2023-04-22T14:46:15.225Z,0.90
2023-04-22T14:48:41.914Z,1.27
2023-04-22T14:51:08.603Z,1.17
2023-04-22T14:53:35.338Z,1.15
2023-04-22T14:56:02.040Z,1.15
2023-04-22T14:58:31.557Z,0.98
2023-04-22T15:00:59.775Z,0.90
2023-04-22T15:03:26.852Z,0.90
2023-04-22T15:05:54.897Z,1.10
2023-04-22T15:08:21.664Z,0.98
2023-04-22T15:10:48.369Z,0.90
2023-04-22T15:13:15.120Z,0.82
2023-04-22T15:15:41.917Z,1.10
2023-04-22T15:18:08.933Z,0.77
2023-04-22T15:20:35.831Z,0.65
2023-04-22T15:23:02.755Z,1.13
2023-04-22T15:25:29.502Z,0.80
2023-04-22T15:27:56.977Z,0.85
2023-04-22T15:30:24.075Z,1.10
2023-04-22T15:35:17.637Z,1.13
2023-04-22T15:37:45.666Z,0.90
2023-04-22T15:40:12.360Z,1.10
2023-04-22T15:42:39.035Z,0.98
2023-04-22T15:45:06.605Z,0.75
2023-04-22T15:47:33.783Z,0.73
2023-04-22T15:50:06.651Z,0.90
2023-04-22T15:52:34.160Z,0.80
2023-04-22T15:55:03.935Z,0.80
2023-04-22T15:57:34.316Z,1.10
2023-04-22T16:00:11.975Z,0.90
2023-04-22T16:02:44.199Z,0.90
2023-04-22T16:05:11.887Z,0.95
2023-04-22T16:07:39.382Z,1.02
2023-04-22T16:10:06.980Z,0.90
2023-04-22T16:12:34.515Z,1.00
2023-04-22T16:15:01.625Z,1.13
2023-04-22T16:19:55.303Z,1.20
2023-04-22T16:24:48.721Z,1.25
2023-04-22T16:27:17.031Z,1.17
2023-04-22T16:29:44.084Z,1.20
2023-04-22T16:32:11.407Z,1.40
2023-04-22T16:34:38.397Z,1.00
2023-04-22T16:37:06.191Z,1.20
2023-04-22T16:39:33.088Z,1.40
2023-04-22T16:44:26.385Z,1.23
2023-04-22T16:46:53.040Z,1.23
2023-04-22T16:49:19.787Z,1.10
2023-04-22T16:51:46.550Z,1.38
2023-04-22T16:54:13.225Z,1.30
2023-04-22T16:56:40.371Z,1.20
2023-04-22T16:59:07.062Z,1.00
2023-04-22T17:01:33.889Z,1.38
2023-04-22T17:04:01.623Z,1.02
2023-04-22T17:06:28.505Z,1.05
2023-04-22T17:08:55.240Z,1.05
2023-04-22T17:11:23.895Z,1.48
2023-04-22T17:13:51.198Z,1.50
2023-04-22T17:16:18.042Z,1.08
2023-04-22T17:18:44.824Z,1.20
2023-04-22T17:21:11.514Z,1.10
2023-04-22T17:23:38.959Z,1.20
2023-04-22T17:26:06.106Z,1.30
2023-04-22T17:28:33.104Z,1.35
2023-04-22T17:30:59.981Z,1.02
2023-04-22T17:33:26.908Z,0.93
2023-04-22T17:35:53.648Z,1.13
2023-04-22T17:38:20.421Z,1.20
2023-04-22T17:40:47.865Z,1.13
2023-04-22T17:43:14.598Z,1.27
2023-04-22T17:45:41.283Z,1.70
2023-04-22T17:48:07.984Z,1.73
2023-04-22T17:50:34.684Z,1.70
2023-04-22T17:53:01.369Z,1.27
2023-04-22T17:55:30.079Z,1.33
2023-04-22T17:57:56.785Z,1.50
2023-04-22T18:00:23.580Z,1.38
2023-04-22T18:02:50.439Z,1.52
2023-04-22T18:05:17.349Z,1.27
2023-04-22T18:07:44.033Z,1.77
2023-04-22T18:10:11.802Z,2.38
2023-04-22T18:12:39.542Z,3.10
2023-04-22T18:15:07.284Z,4.47
2023-04-22T18:17:33.985Z,2.00
2023-04-22T18:20:13.989Z,2.13
2023-04-22T18:22:44.644Z,3.25
2023-04-22T18:25:11.315Z,7.55
2023-04-22T18:27:37.962Z,10.35
2023-04-22T18:30:05.472Z,3.33
2023-04-22T18:32:32.263Z,1.60
2023-04-22T18:34:59.063Z,1.30
2023-04-22T18:37:29.534Z,1.25
2023-04-22T18:39:57.362Z,1.05
2023-04-22T18:42:24.180Z,1.05
2023-04-22T18:44:51.031Z,1.30
2023-04-22T18:47:17.804Z,1.13
2023-04-22T18:49:45.302Z,1.30
2023-04-22T18:52:12.197Z,1.40
2023-04-22T18:54:39.447Z,1.77
2023-04-22T18:57:06.865Z,2.72
2023-04-22T18:59:33.690Z,12.00
2023-04-22T19:02:00.736Z,3.50
2023-04-22T19:04:27.719Z,3.35
2023-04-22T19:06:56.916Z,2.17
2023-04-22T19:09:24.046Z,1.30
2023-04-22T19:11:50.875Z,1.63
2023-04-22T19:14:17.663Z,1.30
2023-04-22T19:16:44.356Z,1.25
2023-04-22T19:19:12.056Z,1.20
2023-04-22T19:21:39.524Z,1.35
2023-04-22T19:24:06.654Z,1.48
2023-04-22T19:26:33.977Z,1.10
2023-04-22T19:31:30.872Z,1.40
2023-04-22T19:33:57.877Z,1.38
2023-04-22T19:36:24.632Z,1.70
2023-04-22T19:38:51.306Z,1.70
2023-04-22T19:41:18.068Z,1.40
2023-04-22T19:43:45.139Z,1.35
2023-04-22T19:46:11.879Z,1.63
2023-04-22T19:48:38.882Z,1.50
2023-04-22T19:51:06.587Z,1.55
2023-04-22T19:53:33.708Z,1.75
2023-04-22T19:56:00.561Z,1.60
2023-04-22T19:58:28.419Z,1.83
2023-04-22T20:00:55.834Z,1.67
2023-04-22T20:05:50.332Z,1.58
2023-04-22T20:10:49.178Z,1.25
2023-04-22T20:13:16.457Z,1.27
2023-04-22T20:18:10.157Z,2.08
2023-04-22T20:20:37.044Z,2.15
2023-04-22T20:23:10.151Z,2.28
2023-04-22T20:25:40.733Z,1.55
2023-04-22T20:28:07.822Z,1.48
2023-04-22T20:30:35.163Z,1.50
2023-04-22T20:35:28.961Z,1.50
2023-04-22T20:37:59.293Z,1.40
2023-04-22T20:40:27.086Z,1.60
2023-04-22T20:42:57.210Z,1.73
2023-04-22T20:45:24.693Z,1.60
2023-04-22T20:47:51.945Z,1.70
2023-04-22T20:52:48.912Z,1.65
2023-04-22T20:55:16.755Z,1.50
2023-04-22T20:57:43.466Z,1.48
2023-04-22T21:00:10.784Z,1.38
2023-04-22T21:05:06.630Z,1.30
2023-04-22T21:07:34.862Z,1.40
2023-04-22T21:10:01.863Z,1.60
2023-04-22T21:12:28.740Z,2.10
2023-04-22T21:14:55.747Z,1.80
2023-04-22T21:17:31.104Z,1.60
2023-04-22T21:19:58.546Z,1.63
2023-04-22T21:22:25.711Z,1.55
2023-04-22T21:24:53.757Z,1.52
2023-04-22T21:27:22.057Z,1.50
2023-04-22T21:29:49.846Z,1.40
2023-04-22T21:32:19.957Z,1.58
2023-04-22T21:34:46.682Z,1.77
2023-04-22T21:37:13.730Z,1.85
2023-04-22T21:39:40.948Z,1.70
2023-04-22T21:42:08.587Z,2.28
2023-04-22T21:44:36.807Z,1.98
2023-04-22T21:47:04.399Z,1.90
2023-04-22T21:51:58.403Z,1.88
2023-04-22T21:54:25.261Z,1.70
2023-04-22T21:56:52.010Z,1.67
2023-04-22T21:59:18.755Z,1.95
2023-04-22T22:01:45.688Z,2.13
2023-04-22T22:04:15.440Z,2.28
2023-04-22T22:06:43.496Z,1.92
2023-04-22T22:09:11.429Z,1.98
2023-04-22T22:11:38.144Z,1.95
2023-04-22T22:14:05.108Z,2.10
2023-04-22T22:16:31.995Z,2.63
2023-04-22T22:18:58.904Z,2.10
2023-04-22T22:21:25.581Z,1.85
2023-04-22T22:23:52.365Z,1.20
2023-04-22T22:26:19.406Z,1.52
2023-04-22T22:28:46.353Z,1.40
2023-04-22T22:31:13.087Z,1.60
2023-04-22T22:33:39.890Z,1.67
2023-04-22T22:36:06.810Z,1.80
2023-04-22T22:38:33.490Z,2.30
2023-04-22T22:41:00.355Z,2.45
2023-04-22T22:43:27.092Z,2.38
2023-04-22T22:45:54.262Z,2.33
2023-04-22T22:48:21.209Z,2.60
2023-04-22T22:50:48.893Z,2.10
2023-04-22T22:53:15.920Z,2.80
2023-04-22T22:55:42.647Z,2.10
2023-04-22T22:58:09.395Z,1.80
2023-04-22T23:00:36.895Z,1.70
2023-04-22T23:03:04.327Z,1.70
2023-04-22T23:05:31.437Z,2.15
2023-04-22T23:07:58.131Z,1.85
2023-04-22T23:10:24.886Z,1.80
2023-04-22T23:12:51.562Z,1.73
2023-04-22T23:15:18.263Z,1.80
2023-04-22T23:17:45.132Z,1.63
2023-04-22T23:20:12.320Z,1.90
2023-04-22T23:22:42.495Z,1.80
2023-04-22T23:25:10.183Z,1.60
2023-04-22T23:27:37.207Z,1.90
2023-04-22T23:30:04.782Z,2.13
2023-04-22T23:32:33.097Z,2.55
2023-04-22T23:35:01.785Z,2.28
2023-04-22T23:37:29.644Z,3.00
2023-04-22T23:39:56.536Z,2.35
2023-04-22T23:42:23.250Z,2.65
2023-04-22T23:44:49.995Z,2.38
2023-04-22T23:47:17.236Z,2.15
2023-04-22T23:49:43.986Z,2.20
2023-04-22T23:52:12.773Z,2.22
2023-04-22T23:54:41.052Z,2.17
2023-04-22T23:57:08.432Z,2.20
2023-04-22T23:59:35.604Z,2.33
